Time;durP1;ratioP1;P1;durP2;ratioP2;P2;SDS_P1;SDS_P2;PMS_P1;PMS_P2;Temp;Humidity;BMP_temperature;BMP_pressure;BME280_temperature;BME280_humidity;BME280_pressure;Samples;Min_cycle;Max_cycle;Signal;HPM_P1;HPM_P2
2021/11/09 00:00:10;;;;;;;43.33;14.85;;;8.70;99.90;;;;;;5093710;28;20024;-69
2021/11/09 00:02:35;;;;;;;27.42;11.73;;;8.70;99.90;;;;;;5093673;28;20027;-69
2021/11/09 00:05:03;;;;;;;41.55;12.50;;;8.60;99.90;;;;;;5092115;28;20016;-69
2021/11/09 00:07:40;;;;;;;30.77;12.43;;;8.60;99.90;;;;;;5093851;28;20028;-69
2021/11/09 00:10:07;;;;;;;31.30;11.85;;;8.50;99.90;;;;;;5093631;28;20141;-69
2021/11/09 00:12:40;;;;;;;31.55;12.10;;;8.50;99.90;;;;;;5093553;28;20408;-69
2021/11/09 00:15:10;;;;;;;31.40;11.68;;;8.40;99.90;;;;;;5093849;28;20028;-69
2021/11/09 00:17:37;;;;;;;27.13;12.10;;;8.40;99.90;;;;;;5093825;28;20024;-69
2021/11/09 00:20:05;;;;;;;40.80;13.43;;;8.40;99.90;;;;;;5093802;28;20103;-69
2021/11/09 00:22:31;;;;;;;32.85;12.80;;;8.40;99.90;;;;;;5093420;28;20028;-69
2021/11/09 00:24:56;;;;;;;29.90;11.25;;;8.30;99.90;;;;;;5093683;28;20433;-69
2021/11/09 00:27:22;;;;;;;26.15;11.30;;;8.30;99.90;;;;;;5093686;28;20034;-69
2021/11/09 00:29:47;;;;;;;37.72;12.52;;;8.30;99.90;;;;;;5097133;28;20042;-69
2021/11/09 00:32:14;;;;;;;36.20;11.90;;;8.40;99.90;;;;;;5096952;28;20481;-69
2021/11/09 00:34:39;;;;;;;29.05;12.30;;;8.30;99.90;;;;;;5097477;28;20027;-69
2021/11/09 00:37:06;;;;;;;27.58;11.23;;;8.30;99.90;;;;;;5096809;28;20028;-69
2021/11/09 00:39:32;;;;;;;30.85;11.38;;;8.30;99.90;;;;;;5078810;28;20028;-69
2021/11/09 00:41:58;;;;;;;32.78;11.35;;;8.40;99.90;;;;;;5095569;28;20040;-69
2021/11/09 00:44:25;;;;;;;37.63;11.73;;;8.30;99.90;;;;;;5097284;28;20019;-69
2021/11/09 00:46:52;;;;;;;31.27;11.63;;;8.30;99.90;;;;;;5096972;28;20016;-69
2021/11/09 00:49:19;;;;;;;31.52;11.95;;;8.30;99.90;;;;;;5097215;28;20027;-69
2021/11/09 00:51:45;;;;;;;28.70;11.18;;;8.30;99.90;;;;;;5097139;28;20020;-69
2021/11/09 00:54:11;;;;;;;33.80;11.10;;;8.30;99.90;;;;;;5096867;28;20381;-69
2021/11/09 00:56:37;;;;;;;32.47;11.75;;;8.30;99.90;;;;;;5097099;28;20456;-69
2021/11/09 00:59:04;;;;;;;33.35;11.32;;;8.30;99.90;;;;;;5096108;28;20051;-69
2021/11/09 01:01:30;;;;;;;30.50;11.48;;;8.30;99.90;;;;;;5096929;28;20020;-69
2021/11/09 01:03:56;;;;;;;31.98;11.63;;;8.30;99.90;;;;;;5095165;28;20024;-69
2021/11/09 01:06:22;;;;;;;24.27;10.57;;;8.30;99.90;;;;;;5096890;28;20056;-69
2021/11/09 01:08:48;;;;;;;29.27;10.88;;;8.30;99.90;;;;;;5096879;28;20366;-69
2021/11/09 01:11:14;;;;;;;29.08;10.98;;;8.30;99.90;;;;;;5096489;28;20024;-69
2021/11/09 01:13:40;;;;;;;27.48;11.32;;;8.30;99.90;;;;;;5094904;28;20028;-69
2021/11/09 01:16:06;;;;;;;38.47;11.13;;;8.30;99.90;;;;;;5096673;28;20081;-69
2021/11/09 01:18:38;;;;;;;39.70;12.07;;;8.30;99.90;;;;;;5096382;28;20030;-69
2021/11/09 01:21:04;;;;;;;30.08;10.57;;;8.30;99.90;;;;;;5096549;28;20024;-69
2021/11/09 01:23:31;;;;;;;32.83;11.82;;;8.30;99.90;;;;;;5095405;28;20028;-69
2021/11/09 01:25:58;;;;;;;29.95;11.43;;;8.30;99.90;;;;;;5096517;28;20026;-69
2021/11/09 01:28:25;;;;;;;23.70;10.10;;;8.20;99.90;;;;;;5096457;28;20016;-69
2021/11/09 01:30:52;;;;;;;24.27;9.98;;;8.20;99.90;;;;;;5096405;28;20012;-69
2021/11/09 01:33:18;;;;;;;24.00;9.93;;;8.20;99.90;;;;;;5096073;28;20016;-69
2021/11/09 01:35:44;;;;;;;30.50;10.77;;;8.20;99.90;;;;;;5094458;28;20028;-69
2021/11/09 01:38:10;;;;;;;22.90;9.82;;;8.10;99.90;;;;;;5096252;28;20419;-69
2021/11/09 01:40:38;;;;;;;23.33;10.63;;;8.10;99.90;;;;;;5095501;28;20032;-69
2021/11/09 01:43:04;;;;;;;40.28;12.38;;;8.00;99.90;;;;;;5095404;28;20473;-69
2021/11/09 01:45:31;;;;;;;26.75;11.02;;;8.00;99.90;;;;;;5096152;28;20028;-69
2021/11/09 01:47:56;;;;;;;31.70;11.60;;;7.90;99.90;;;;;;5094895;28;20012;-69
2021/11/09 01:50:27;;;;;;;26.30;10.35;;;7.70;99.90;;;;;;5095996;28;20021;-69
2021/11/09 01:52:53;;;;;;;28.52;10.50;;;;;;;;;;5095968;28;20472;-69
2021/11/09 01:55:21;;;;;;;36.75;11.50;;;;;;;;;;5095646;28;20107;-69
2021/11/09 01:57:47;;;;;;;32.80;11.30;;;;;;;;;;5095598;28;20024;-69
2021/11/09 02:00:17;;;;;;;26.83;10.13;;;;;;;;;;5095555;28;20032;-69
2021/11/09 02:02:44;;;;;;;33.90;11.40;;;;;;;;;;5095418;28;20145;-69
2021/11/09 02:05:11;;;;;;;29.67;11.45;;;;;;;;;;5094313;28;20377;-69
2021/11/09 02:07:42;;;;;;;25.25;10.48;;;;;;;;;;5094432;28;20039;-69
2021/11/09 02:10:08;;;;;;;37.03;12.70;;;;;;;;;;5094204;28;20020;-69
2021/11/09 02:12:34;;;;;;;32.78;11.93;;;;;;;;;;5095306;28;20043;-69
2021/11/09 02:15:00;;;;;;;32.80;11.02;;;;;;;;;;5095287;28;20024;-69
2021/11/09 02:17:26;;;;;;;28.08;10.85;;;;;;;;;;5095201;28;20063;-69
2021/11/09 02:19:52;;;;;;;34.28;11.68;;;;;;;;;;5093622;28;20059;-69
2021/11/09 02:22:18;;;;;;;28.08;11.57;;;;;;;;;;5095056;28;20028;-69
2021/11/09 02:24:44;;;;;;;27.70;10.98;;;;;;;;;;5095090;28;20020;-69
2021/11/09 02:27:10;;;;;;;27.38;9.93;;;;;;;;;;5095052;28;20027;-69
2021/11/09 02:29:36;;;;;;;29.00;11.40;;;;;;;;;;5095005;28;20043;-69
2021/11/09 02:32:04;;;;;;;38.17;12.48;;;;;;;;;;5094948;28;20036;-69
2021/11/09 02:34:30;;;;;;;26.48;11.13;;;;;;;;;;5095176;28;20427;-69
2021/11/09 02:36:56;;;;;;;30.23;11.50;;;;;;;;;;5094846;28;20150;-69
2021/11/09 02:39:22;;;;;;;26.80;11.07;;;;;;;;;;5094825;28;20512;-69
2021/11/09 02:41:48;;;;;;;30.90;12.63;;;;;;;;;;5094393;28;20075;-68
2021/11/09 02:44:14;;;;;;;30.98;11.93;;;;;;;;;;5094726;28;20020;-69
2021/11/09 02:46:48;;;;;;;29.50;12.38;;;;;;;;;;5094697;28;20384;-68
2021/11/09 02:49:22;;;;;;;31.25;11.63;;;;;;;;;;5094634;28;20062;-68
2021/11/09 02:51:52;;;;;;;27.73;11.80;;;;;;;;;;5094111;28;20024;-68
2021/11/09 02:54:24;;;;;;;33.05;12.48;;;;;;;;;;5094827;28;20027;-68
2021/11/09 02:56:56;;;;;;;29.25;13.05;;;;;;;;;;5094552;28;20024;-68
2021/11/09 02:59:46;;;;;;;32.95;12.38;;;;;;;;;;5094500;28;20481;-68
2021/11/09 03:02:17;;;;;;;24.08;12.32;;;;;;;;;;5093959;28;20492;-68
2021/11/09 03:04:57;;;;;;;33.10;12.77;;;;;;;;;;5094379;28;20020;-68
2021/11/09 03:07:45;;;;;;;32.28;12.25;;;;;;;;;;5094314;28;20016;-68
2021/11/09 03:10:25;;;;;;;31.45;11.90;;;;;;;;;;5093897;28;20024;-68
2021/11/09 03:12:51;;;;;;;28.92;12.48;;;;;;;;;;5093238;28;20066;-68
2021/11/09 03:15:22;;;;;;;28.60;11.70;;;;;;;;;;5094212;28;20020;-68
2021/11/09 03:17:53;;;;;;;32.20;12.35;;;;;;;;;;5094199;28;20028;-68
2021/11/09 03:20:28;;;;;;;44.45;14.90;;;;;;;;;;5094157;28;20020;-68
2021/11/09 03:45:06;;;;;;;30.80;12.27;;;;;;;;;;5093403;28;20033;-68
2021/11/09 03:47:36;;;;;;;30.55;13.07;;;;;;;;;;5093834;28;20471;-68
2021/11/09 03:50:02;;;;;;;26.27;14.50;;;;;;;;;;5092255;28;20016;-68
2021/11/09 03:52:31;;;;;;;30.10;13.52;;;;;;;;;;5093746;28;20032;-68
2021/11/09 03:55:03;;;;;;;30.83;13.88;;;;;;;;;;5093717;28;20016;-68
2021/11/09 03:57:33;;;;;;;48.85;17.10;;;;;;;;;;5093701;28;20020;-68
2021/11/09 04:02:46;;;;;;;30.70;14.07;;;;;;;;;;5093885;28;20036;-67
2021/11/09 04:05:15;;;;;;;34.58;14.63;;;;;;;;;;5097791;28;20047;-67
2021/11/09 04:07:51;;;;;;;41.13;15.60;;;;;;;;;;5096229;28;20107;-67
2021/11/09 04:10:26;;;;;;;36.45;14.88;;;;;;;;;;5097664;28;20066;-67
2021/11/09 04:13:00;;;;;;;33.35;15.02;;;;;;;;;;5097672;28;20172;-67
2021/11/09 04:18:26;;;;;;;43.50;16.83;;;;;;;;;;5097135;28;20031;-68
2021/11/09 04:21:39;;;;;;;29.45;14.48;;;;;;;;;;5097548;28;20016;-68
2021/11/09 04:29:41;;;;;;;40.70;14.95;;;;;;;;;;5095824;28;20066;-67
2021/11/09 04:32:07;;;;;;;40.10;16.27;;;;;;;;;;5096871;28;20024;-68
2021/11/09 04:35:31;;;;;;;47.63;17.77;;;;;;;;;;5097255;28;20023;-68
2021/11/09 04:47:00;;;;;;;35.42;17.15;;;;;;;;;;5096636;28;20071;-68
2021/11/09 05:01:08;;;;;;;36.88;15.30;;;;;;;;;;5096530;28;20438;-67
2021/11/09 05:10:32;;;;;;;35.40;15.48;;;;;;;;;;5096123;28;20028;-68
2021/11/09 05:12:58;;;;;;;32.70;15.05;;;;;;;;;;5096541;28;20495;-68
2021/11/09 05:15:24;;;;;;;25.85;14.68;;;;;;;;;;5078498;28;20347;-68
2021/11/09 05:17:50;;;;;;;46.50;17.05;;;;;;;;;;5096421;28;20024;-68
2021/11/09 05:20:17;;;;;;;40.33;16.23;;;;;;;;;;5096312;28;20080;-68
2021/11/09 05:22:44;;;;;;;36.10;16.48;;;;;;;;;;5095031;28;20030;-68
2021/11/09 05:25:10;;;;;;;43.25;17.27;;;;;;;;;;5096274;28;20137;-68
2021/11/09 05:27:36;;;;;;;38.67;16.63;;;;;;;;;;5096161;28;20068;-68
2021/11/09 05:30:03;;;;;;;32.03;15.43;;;;;;;;;;5096095;28;20016;-67
2021/11/09 05:32:29;;;;;;;32.90;16.27;;;;;;;;;;5096125;28;20024;-67
2021/11/09 05:34:55;;;;;;;48.78;18.63;;;;;;;;;;5096050;28;20020;-67
2021/11/09 05:37:26;;;;;;;36.08;16.42;;;;;;;;;;5096118;28;20484;-65
2021/11/09 05:39:54;;;;;;;38.83;17.88;;;;;;;;;;5094905;28;20035;-65
2021/11/09 05:42:21;;;;;;;40.20;17.63;;;;;;;;;;5095444;28;20036;-65
2021/11/09 05:44:47;;;;;;;46.67;19.52;;;;;;;;;;5095221;28;20469;-65
2021/11/09 05:47:13;;;;;;;46.13;18.17;;;;;;;;;;5095894;28;20059;-63
2021/11/09 05:49:40;;;;;;;43.70;18.52;;;;;;;;;;5095793;28;20051;-64
2021/11/09 05:52:06;;;;;;;42.03;17.58;;;;;;;;;;5096246;28;20023;-64
2021/11/09 05:54:32;;;;;;;43.70;18.27;;;;;;;;;;5095712;28;20047;-65
2021/11/09 05:56:58;;;;;;;35.42;17.35;;;;;;;;;;5095643;28;20457;-66
2021/11/09 05:59:24;;;;;;;40.03;17.40;;;;;;;;;;5094860;28;20034;-63
2021/11/09 06:01:50;;;;;;;38.47;16.15;;;;;;;;;;5095512;28;20419;-64
2021/11/09 06:04:17;;;;;;;45.03;18.25;;;;;;;;;;5095461;28;20020;-64
2021/11/09 06:06:43;;;;;;;41.13;18.83;;;;;;;;;;5095726;28;20028;-66
2021/11/09 06:09:09;;;;;;;42.47;20.27;;;;;;;;;;5095394;28;20031;-65
2021/11/09 06:11:35;;;;;;;41.13;18.73;;;;;;;;;;5095345;28;20032;-65
2021/11/09 06:14:01;;;;;;;43.58;19.65;;;;;;;;;;5095321;28;20028;-65
2021/11/09 06:16:27;;;;;;;50.58;20.30;;;;;;;;;;5095279;28;20063;-66
2021/11/09 06:18:53;;;;;;;37.72;18.67;;;;;;;;;;5095228;28;20067;-66
2021/11/09 06:21:19;;;;;;;44.92;19.73;;;;;;;;;;5095084;28;20020;-63
2021/11/09 06:23:45;;;;;;;43.78;19.85;;;;;;;;;;5095104;28;20024;-65
2021/11/09 06:26:12;;;;;;;36.40;18.50;;;;;;;;;;5094247;28;20052;-66
2021/11/09 06:28:39;;;;;;;40.47;19.23;;;;;;;;;;5095052;28;20028;-66
2021/11/09 06:31:05;;;;;;;37.75;19.42;;;;;;;;;;5093810;28;20016;-66
2021/11/09 06:33:32;;;;;;;42.75;22.17;;;;;;;;;;5094981;28;20050;-65
2021/11/09 06:35:58;;;;;;;51.72;24.20;;;;;;;;;;5094754;28;20415;-65
2021/11/09 06:38:24;;;;;;;40.60;23.70;;;;;;;;;;5094822;28;20032;-65
2021/11/09 06:40:50;;;;;;;43.80;22.20;;;;;;;;;;5094585;28;20469;-65
2021/11/09 06:43:16;;;;;;;38.65;22.25;;;;;;;;;;5094710;28;20028;-64
2021/11/09 06:45:43;;;;;;;39.28;20.60;;;;;;;;;;5094479;28;20466;-65
2021/11/09 06:48:09;;;;;;;38.17;21.17;;;;;;;;;;5094692;28;20073;-65
2021/11/09 06:50:35;;;;;;;47.95;22.23;;;;;;;;;;5094706;28;20028;-65
2021/11/09 06:53:02;;;;;;;46.75;21.83;;;;;;;;;;5094516;28;20031;-65
2021/11/09 06:55:28;;;;;;;39.92;20.13;;;;;;;;;;5094535;28;20491;-65
2021/11/09 06:57:54;;;;;;;61.25;25.20;;;;;;;;;;5094513;28;20024;-66
2021/11/09 07:00:22;;;;;;;54.75;23.02;;;;;;;;;;5094364;28;20036;-66
2021/11/09 07:02:48;;;;;;;47.97;22.92;;;;;;;;;;5094086;28;20369;-65
2021/11/09 07:05:14;;;;;;;46.47;23.88;;;;;;;;;;5094332;28;20381;-66
2021/11/09 07:07:42;;;;;;;54.85;26.83;;;;;;;;;;5094357;28;20036;-68
2021/11/09 07:10:08;;;;;;;47.30;24.58;;;;;;;;;;5094210;28;20476;-68
2021/11/09 07:12:35;;;;;;;56.35;24.30;;;;;;;;;;5094497;28;20020;-68
2021/11/09 07:15:01;;;;;;;54.47;26.10;;;;;;;;;;5094195;28;20024;-68
2021/11/09 07:17:27;;;;;;;66.05;28.23;;;;;;;;;;5094138;28;20458;-68
2021/11/09 07:19:53;;;;;;;59.40;28.98;;;;;;;;;;5093126;28;20032;-68
2021/11/09 07:22:20;;;;;;;53.40;28.55;;;5.90;99.90;;;;;;5093951;28;20021;-68
2021/11/09 07:24:47;;;;;;;54.38;28.23;;;6.30;99.90;;;;;;5092397;28;20030;-68
2021/11/09 07:27:13;;;;;;;53.35;24.23;;;7.10;99.90;;;;;;5093316;28;20020;-68
2021/11/09 07:29:44;;;;;;;45.90;20.48;;;7.60;99.90;;;;;;5091593;28;20111;-64
2021/11/09 07:32:10;;;;;;;30.95;15.15;;;8.30;99.90;;;;;;5092430;28;20400;-63
2021/11/09 07:34:36;;;;;;;29.67;12.65;;;8.90;99.90;;;;;;5089992;28;20032;-64
2021/11/09 07:37:02;;;;;;;25.77;12.25;;;9.70;99.90;;;;;;5106364;28;20092;-64
2021/11/09 07:39:28;;;;;;;25.08;11.52;;;10.30;99.90;;;;;;5102157;28;20034;-65
2021/11/09 07:41:53;;;;;;;29.85;11.35;;;10.60;99.90;;;;;;5092532;28;20405;-65
2021/11/09 07:44:19;;;;;;;22.77;10.15;;;10.70;99.90;;;;;;5090496;28;20035;-64
2021/11/09 07:46:44;;;;;;;30.05;11.55;;;10.60;99.90;;;;;;5093645;28;20024;-70
2021/11/09 07:49:11;;;;;;;29.98;11.27;;;11.10;99.90;;;;;;5091345;28;20374;-70
2021/11/09 07:51:37;;;;;;;26.13;11.15;;;11.20;99.90;;;;;;5092090;28;20039;-70
2021/11/09 07:54:04;;;;;;;26.25;10.60;;;11.20;99.90;;;;;;5091035;28;20016;-70
2021/11/09 07:56:33;;;;;;;22.08;11.18;;;11.60;99.90;;;;;;5093221;28;20024;-70
2021/11/09 08:01:49;;;;;;;44.47;20.02;;;10.90;99.90;;;;;;5109714;27;20966;-68
2021/11/09 08:04:23;;;;;;;41.85;19.35;;;11.50;99.90;;;;;;5110784;28;20024;-69
2021/11/09 08:06:53;;;;;;;33.95;17.35;;;11.60;99.90;;;;;;5095725;28;20020;-70
2021/11/09 08:09:26;;;;;;;31.50;15.73;;;12.00;99.90;;;;;;5090706;28;20075;-67
2021/11/09 08:11:51;;;;;;;38.80;17.92;;;12.00;99.90;;;;;;5098943;28;20025;-70
2021/11/09 08:14:18;;;;;;;37.25;16.23;;;12.20;99.90;;;;;;5108435;28;20027;-69
2021/11/09 08:16:47;;;;;;;25.55;12.93;;;12.00;99.90;;;;;;5097003;28;20029;-69
2021/11/09 08:19:13;;;;;;;26.85;12.18;;;12.60;99.90;;;;;;5085763;28;20470;-69
2021/11/09 08:21:39;;;;;;;23.02;11.30;;;12.90;99.90;;;;;;5093591;28;20028;-69
2021/11/09 08:24:08;;;;;;;27.83;11.63;;;12.80;99.90;;;;;;5102765;28;20066;-69
2021/11/09 08:26:35;;;;;;;34.90;18.83;;;12.90;99.90;;;;;;5093188;28;20023;-70
2021/11/09 08:29:03;;;;;;;26.83;11.00;;;13.10;99.90;;;;;;5096381;28;20020;-70
2021/11/09 08:31:29;;;;;;;28.17;11.02;;;13.80;99.90;;;;;;5079307;28;20377;-69
2021/11/09 08:33:55;;;;;;;24.73;11.70;;;14.30;99.90;;;;;;5089673;28;20029;-69
2021/11/09 08:36:23;;;;;;;24.30;10.95;;;14.30;99.90;;;;;;5078390;28;20036;-70
2021/11/09 08:38:51;;;;;;;22.05;10.10;;;14.10;99.90;;;;;;5086328;28;20054;-69
2021/11/09 08:41:18;;;;;;;21.70;10.98;;;14.50;99.90;;;;;;5084063;28;20031;-70
2021/11/09 08:43:58;;;;;;;25.42;11.75;;;14.30;99.90;;;;;;5088925;28;20023;-70
2021/11/09 08:46:25;;;;;;;29.13;10.68;;;14.20;99.90;;;;;;5102212;28;20032;-70
2021/11/09 08:48:53;;;;;;;25.88;10.57;;;14.80;99.90;;;;;;5098889;28;20012;-70
2021/11/09 08:51:21;;;;;;;20.70;9.43;;;15.30;99.90;;;;;;5109761;28;20032;-70
2021/11/09 08:54:00;;;;;;;22.70;10.32;;;15.60;99.90;;;;;;5091268;28;20025;-70
2021/11/09 08:56:34;;;;;;;23.15;9.80;;;15.40;99.90;;;;;;5069697;28;20086;-70
2021/11/09 09:04:18;;;;;;;28.75;10.35;;;15.00;99.90;;;;;;5070360;28;20029;-71
2021/11/09 09:06:45;;;;;;;22.08;10.43;;;14.50;99.90;;;;;;5069661;28;20450;-71
2021/11/09 09:09:12;;;;;;;23.65;10.18;;;15.00;99.90;;;;;;5072730;28;20479;-70
2021/11/09 09:11:38;;;;;;;21.83;9.95;;;15.20;99.90;;;;;;5064070;28;20029;-70
2021/11/09 09:14:04;;;;;;;22.77;8.90;;;15.50;99.90;;;;;;5061649;28;20157;-70
2021/11/09 09:16:33;;;;;;;20.00;8.85;;;15.90;99.90;;;;;;5078436;28;20039;-70
2021/11/09 09:19:00;;;;;;;24.25;10.20;;;16.20;99.90;;;;;;5084300;28;20019;-70
2021/11/09 09:21:33;;;;;;;21.23;9.25;;;16.30;99.90;;;;;;5079414;28;20573;-70
2021/11/09 09:24:07;;;;;;;22.10;10.05;;;16.30;99.90;;;;;;5078660;28;20456;-70
2021/11/09 09:26:48;;;;;;;19.52;9.05;;;16.90;99.90;;;;;;5076938;28;20059;-70
2021/11/09 09:54:19;;;;;;;14.68;5.97;;;15.80;99.90;;;;;;5069939;28;20040;-70
2021/11/09 09:56:52;;;;;;;14.50;5.70;;;15.70;99.90;;;;;;5069508;28;20029;-70
2021/11/09 09:59:19;;;;;;;16.40;5.93;;;15.70;99.90;;;;;;5053834;28;20025;-70
2021/11/09 10:02:01;;;;;;;16.00;6.18;;;16.00;99.90;;;;;;5077603;28;20029;-70
2021/11/09 10:04:29;;;;;;;15.43;5.40;;;15.80;99.90;;;;;;5076118;28;20051;-70
2021/11/09 10:06:56;;;;;;;13.73;5.60;;;15.60;99.90;;;;;;5086281;28;20013;-70
2021/11/09 10:09:44;;;;;;;16.67;4.90;;;15.10;99.90;;;;;;5067659;28;20375;-71
2021/11/09 10:12:26;;;;;;;11.70;5.22;;;15.90;99.90;;;;;;5071825;28;20096;-65
2021/11/09 10:14:55;;;;;;;11.05;4.95;;;15.90;99.90;;;;;;5072308;28;20508;-65
2021/11/09 10:17:24;;;;;;;15.73;5.32;;;16.10;99.90;;;;;;5061641;28;20063;-65
2021/11/09 10:19:50;;;;;;;17.98;5.20;;;15.60;99.90;;;;;;5067012;28;20437;-69
2021/11/09 10:22:19;;;;;;;10.38;5.15;;;15.20;99.90;;;;;;5072613;28;20044;-70
2021/11/09 10:24:51;;;;;;;13.35;4.18;;;15.50;99.90;;;;;;5086986;28;20112;-69
2021/11/09 10:27:18;;;;;;;10.13;4.35;;;15.70;99.90;;;;;;5072360;28;20468;-70
2021/11/09 10:29:45;;;;;;;9.98;3.35;;;15.90;99.90;;;;;;5078715;28;20028;-69
2021/11/09 10:32:15;;;;;;;12.13;3.50;;;15.60;99.90;;;;;;5081773;28;20462;-69
2021/11/09 10:34:41;;;;;;;8.88;3.17;;;15.70;99.90;;;;;;5073064;28;20033;-69
2021/11/09 10:37:20;;;;;;;6.85;3.35;;;15.70;99.90;;;;;;5085905;28;20355;-69
2021/11/09 10:39:47;;;;;;;9.95;3.17;;;15.70;99.90;;;;;;5075766;28;20046;-69
2021/11/09 10:42:14;;;;;;;7.28;2.92;;;15.80;99.90;;;;;;5073885;28;20062;-69
2021/11/09 10:44:42;;;;;;;14.15;4.05;;;15.60;99.90;;;;;;5059186;28;20403;-69
2021/11/09 10:47:22;;;;;;;7.30;3.22;;;15.50;99.90;;;;;;5072556;28;20035;-70
2021/11/09 10:49:52;;;;;;;7.82;2.63;;;15.90;99.90;;;;;;5054053;28;20029;-69
2021/11/09 10:52:25;;;;;;;8.20;3.05;;;16.00;99.90;;;;;;5054952;28;20017;-68
2021/11/09 10:55:00;;;;;;;8.93;2.87;;;16.00;99.90;;;;;;5056134;28;20466;-70
2021/11/09 10:57:37;;;;;;;7.63;2.88;;;16.00;99.90;;;;;;5053782;28;20100;-70
2021/11/09 11:05:24;;;;;;;8.60;2.70;;;15.10;99.90;;;;;;5035454;28;20537;-70
2021/11/09 11:08:00;;;;;;;6.28;2.72;;;15.10;99.90;;;;;;5037084;28;20033;-70
2021/11/09 11:10:30;;;;;;;8.82;2.60;;;14.70;99.90;;;;;;5050764;28;20546;-70
2021/11/09 11:13:17;;;;;;;9.77;3.50;;;14.60;99.90;;;;;;5042572;28;20032;-70
2021/11/09 11:16:00;;;;;;;6.53;2.70;;;14.80;99.90;;;;;;5054040;28;20025;-70
2021/11/09 11:18:28;;;;;;;8.73;2.67;;;14.50;99.90;;;;;;5052325;28;20379;-70
2021/11/09 11:20:55;;;;;;;6.10;3.05;;;14.30;99.90;;;;;;5055154;28;20036;-70
2021/11/09 11:23:21;;;;;;;10.18;3.20;;;14.20;99.90;;;;;;5054901;28;20501;-70
2021/11/09 11:25:47;;;;;;;8.43;3.03;;;13.90;99.90;;;;;;5053761;28;20119;-70
2021/11/09 11:28:12;;;;;;;9.50;2.80;;;13.90;99.90;;;;;;5055238;28;20108;-70
2021/11/09 11:30:38;;;;;;;6.18;2.72;;;14.00;99.90;;;;;;5053250;28;20494;-70
2021/11/09 11:33:04;;;;;;;9.82;3.10;;;14.20;99.90;;;;;;5055166;28;20536;-70
2021/11/09 11:35:29;;;;;;;7.13;3.13;;;14.30;99.90;;;;;;5052338;28;20021;-70
2021/11/09 11:37:55;;;;;;;12.60;4.32;;;14.40;99.90;;;;;;5051698;28;20021;-70
2021/11/09 11:40:21;;;;;;;13.25;3.55;;;14.30;99.90;;;;;;5034089;28;20029;-70
2021/11/09 11:42:46;;;;;;;5.88;3.13;;;14.30;99.90;;;;;;5040808;28;20505;-70
2021/11/09 11:45:12;;;;;;;9.15;3.22;;;14.30;99.90;;;;;;5053726;28;20421;-70
2021/11/09 11:47:38;;;;;;;12.88;3.33;;;14.20;99.90;;;;;;5049783;28;20075;-70
2021/11/09 11:50:08;;;;;;;9.35;3.13;;;14.00;99.90;;;;;;5034869;28;20601;-70
2021/11/09 11:52:44;;;;;;;10.63;3.45;;;14.10;99.90;;;;;;5040008;28;20031;-70
2021/11/09 11:55:27;;;;;;;8.32;2.83;;;13.90;99.90;;;;;;5053136;28;20090;-70
2021/11/09 11:57:54;;;;;;;;;;;14.10;99.90;;;;;;5049097;28;20407;-70
2021/11/09 12:00:40;;;;;;;7.72;2.70;;;14.30;99.90;;;;;;5048271;28;19909;-70
2021/11/09 12:06:22;;;;;;;8.82;3.83;;;14.00;99.90;;;;;;5079964;27;20324;-71
2021/11/09 12:08:50;;;;;;;7.68;2.80;;;14.20;99.90;;;;;;5090967;28;20020;-71
2021/11/09 12:14:05;;;;;;;8.70;2.75;;;14.20;99.90;;;;;;5110812;27;20453;-70
2021/11/09 12:16:52;;;;;;;6.75;2.58;;;14.00;99.90;;;;;;5098931;28;20603;-71
2021/11/09 12:19:49;;;;;;;6.30;2.75;;;14.00;99.90;;;;;;5091055;28;20024;-71
2021/11/09 12:22:18;;;;;;;8.75;2.65;;;14.10;99.90;;;;;;5104049;28;20024;-70
2021/11/09 12:24:55;;;;;;;6.18;2.85;;;14.10;99.90;;;;;;5110215;28;20024;-71
2021/11/09 12:27:29;;;;;;;8.65;2.75;;;13.90;99.90;;;;;;5092854;28;20024;-71
2021/11/09 12:29:55;;;;;;;10.13;3.10;;;13.90;99.90;;;;;;5092044;28;20056;-71
2021/11/09 12:32:25;;;;;;;8.98;2.83;;;13.90;99.90;;;;;;5090687;28;20097;-70
2021/11/09 12:35:05;;;;;;;6.55;2.35;;;13.90;99.90;;;;;;5099261;28;20576;-70
2021/11/09 12:37:35;;;;;;;9.65;2.80;;;14.00;99.90;;;;;;5111811;28;20020;-69
2021/11/09 12:40:41;;;;;;;8.48;2.15;;;14.00;99.90;;;;;;5105205;28;20062;-69
2021/11/09 12:46:30;;;;;;;9.57;2.42;;;14.20;99.90;;;;;;5152910;27;20353;-69
2021/11/09 12:49:17;;;;;;;7.28;2.40;;;14.30;99.90;;;;;;5134291;27;20106;-69
2021/11/09 12:51:51;;;;;;;7.18;2.60;;;14.20;99.90;;;;;;5144360;27;20456;-70
2021/11/09 12:54:18;;;;;;;;;;;14.20;99.90;;;;;;5153155;27;20026;-69
2021/11/09 12:56:46;;;;;;;8.38;2.75;;;14.10;99.90;;;;;;5150406;27;19914;-70
2021/11/09 12:59:19;;;;;;;7.25;2.53;;;14.10;99.90;;;;;;5152719;27;20046;-70
2021/11/09 13:02:11;;;;;;;8.27;2.60;;;14.20;99.90;;;;;;5135900;27;20404;-66
2021/11/09 13:07:39;;;;;;;9.32;2.40;;;14.00;99.90;;;;;;5150050;27;20019;-66
2021/11/09 13:10:07;;;;;;;8.63;2.63;;;14.00;99.90;;;;;;5138839;27;20545;-66
2021/11/09 13:12:35;;;;;;;9.50;2.50;;;14.00;99.90;;;;;;5135405;27;20041;-66
2021/11/09 13:15:09;;;;;;;9.13;2.65;;;14.10;99.90;;;;;;5150964;27;20476;-67
2021/11/09 13:22:54;;;;;;;7.20;2.47;;;14.10;99.90;;;;;;5056651;28;20709;-70
2021/11/09 13:25:43;;;;;;;7.07;2.40;;;13.90;99.90;;;;;;5051147;28;20028;-70
2021/11/09 13:28:20;;;;;;;4.90;2.40;;;14.00;99.90;;;;;;5050171;28;20028;-71
2021/11/09 13:30:54;;;;;;;6.53;2.65;;;13.90;99.90;;;;;;5050697;28;20033;-70
2021/11/09 13:33:22;;;;;;;5.85;2.53;;;13.80;99.90;;;;;;5065086;28;20103;-70
2021/11/09 13:35:48;;;;;;;4.18;2.15;;;13.90;99.90;;;;;;5050469;28;20026;-70
2021/11/09 13:38:21;;;;;;;6.07;2.55;;;13.80;99.90;;;;;;5049957;28;20025;-70
2021/11/09 13:40:50;;;;;;;4.82;2.40;;;13.70;99.90;;;;;;5049178;28;20460;-70
2021/11/09 13:43:19;;;;;;;9.57;2.67;;;13.70;99.90;;;;;;5050939;28;20043;-70
2021/11/09 13:45:45;;;;;;;7.75;2.45;;;13.70;99.90;;;;;;5049951;28;20051;-70
2021/11/09 13:48:14;;;;;;;9.43;2.55;;;13.60;99.90;;;;;;5049772;28;20033;-69
2021/11/09 13:50:41;;;;;;;11.23;3.33;;;13.60;99.90;;;;;;5057573;28;20033;-70
2021/11/09 13:53:07;;;;;;;6.35;2.72;;;13.50;99.90;;;;;;5062222;28;20013;-70
2021/11/09 13:55:39;;;;;;;6.72;2.70;;;13.40;99.90;;;;;;5050229;28;20033;-69
2021/11/09 13:58:07;;;;;;;5.78;2.40;;;13.50;99.90;;;;;;5065205;28;20108;-69
2021/11/09 14:00:39;;;;;;;7.05;2.30;;;13.50;99.90;;;;;;5049023;28;20021;-69
2021/11/09 14:03:15;;;;;;;6.93;2.53;;;13.50;99.90;;;;;;5049969;28;20067;-69
2021/11/09 14:16:52;;;;;;;9.80;2.88;;;13.40;99.90;;;;;;5049451;28;20051;-69
2021/11/09 14:19:32;;;;;;;9.88;2.40;;;13.40;99.90;;;;;;5050929;28;20467;-69
2021/11/09 14:21:58;;;;;;;8.77;2.95;;;13.30;99.90;;;;;;5051800;28;20099;-69
2021/11/09 14:24:27;;;;;;;8.98;2.95;;;13.30;99.90;;;;;;5049736;28;20025;-69
2021/11/09 14:27:05;;;;;;;12.93;3.20;;;13.30;99.90;;;;;;5049504;28;20041;-69
2021/11/09 14:29:35;;;;;;;10.15;2.90;;;13.20;99.90;;;;;;5049379;28;20021;-69
2021/11/09 14:32:23;;;;;;;10.27;3.05;;;13.10;99.90;;;;;;5048521;28;20060;-69
2021/11/09 14:35:08;;;;;;;6.93;2.53;;;13.20;99.90;;;;;;5051662;28;20052;-69
2021/11/09 14:38:00;;;;;;;8.13;2.63;;;13.10;99.90;;;;;;5035735;28;20463;-69
2021/11/09 14:40:50;;;;;;;9.27;3.00;;;13.10;99.90;;;;;;5036935;28;20080;-69
2021/11/09 14:43:24;;;;;;;9.70;3.22;;;13.00;99.90;;;;;;5036182;28;20036;-69
2021/11/09 14:46:04;;;;;;;10.07;2.95;;;13.00;99.90;;;;;;5036144;28;20545;-69
2021/11/09 14:48:46;;;;;;;17.25;3.45;;;13.00;99.90;;;;;;5041371;28;20034;-69
2021/11/09 14:51:27;;;;;;;11.15;3.22;;;12.90;99.90;;;;;;5035769;28;20026;-69
2021/11/09 14:56:35;;;;;;;6.80;2.47;;;12.80;99.90;;;;;;5067483;28;20858;-69
2021/11/09 14:59:05;;;;;;;11.98;3.42;;;12.70;99.90;;;;;;5070944;28;20132;-69
2021/11/09 15:01:42;;;;;;;11.27;2.97;;;12.70;99.90;;;;;;5068713;28;20043;-69
2021/11/09 15:04:17;;;;;;;5.65;2.83;;;12.70;99.90;;;;;;5051649;28;20025;-70
2021/11/09 15:06:55;;;;;;;10.02;3.20;;;12.60;99.90;;;;;;5058421;28;20378;-69
2021/11/09 15:29:42;;;;;;;14.10;3.70;;;11.60;99.90;;;;;;5049977;28;20033;-69
2021/11/09 15:31:57;;;;;;;12.30;4.32;;;11.50;99.90;;;;;;5049363;28;20064;-69
2021/11/09 15:34:34;;;;;;;13.23;4.67;;;11.40;99.90;;;;;;5061239;28;20463;-69
2021/11/09 15:37:22;;;;;;;13.95;4.15;;;11.30;99.90;;;;;;5055908;28;20045;-69
2021/11/09 15:39:47;;;;;;;8.32;3.33;;;11.20;99.90;;;;;;5049689;28;20033;-69
2021/11/09 15:42:13;;;;;;;9.23;3.80;;;11.00;99.90;;;;;;5050459;28;20497;-68
2021/11/09 15:44:40;;;;;;;13.77;4.68;;;10.90;99.90;;;;;;5050630;28;20033;-68
2021/11/09 15:47:05;;;;;;;10.30;4.18;;;10.80;99.90;;;;;;5051052;28;20115;-68
2021/11/09 15:49:31;;;;;;;9.20;4.40;;;10.60;99.90;;;;;;5050355;28;20060;-68
2021/11/09 15:51:57;;;;;;;9.15;4.05;;;10.50;99.90;;;;;;5050004;28;20083;-68
2021/11/09 15:54:23;;;;;;;9.13;4.47;;;10.30;99.90;;;;;;5061777;28;20528;-68